sensor_id;sensor_type;location;lat;lon;timestamp;temperature;humidity
18229;DHT22;9239;50.932;3.142;2024-01-30T00:00:09;10.40;99.90
18229;DHT22;9239;50.932;3.142;2024-01-30T00:02:36;10.40;99.90
18229;DHT22;9239;50.932;3.142;2024-01-30T00:05:05;10.40;99.90
18229;DHT22;9239;50.932;3.142;2024-01-30T00:07:32;10.40;99.90
18229;DHT22;9239;50.932;3.142;2024-01-30T00:09:59;10.40;99.90
18229;DHT22;9239;50.932;3.142;2024-01-30T00:12:26;10.40;99.90
18229;DHT22;9239;50.932;3.142;2024-01-30T00:14:53;10.40;99.90
18229;DHT22;9239;50.932;3.142;2024-01-30T00:17:21;10.40;99.90
18229;DHT22;9239;50.932;3.142;2024-01-30T00:19:48;10.40;99.90
18229;DHT22;9239;50.932;3.142;2024-01-30T00:22:16;10.40;99.90
18229;DHT22;9239;50.932;3.142;2024-01-30T00:24:43;10.40;99.90
18229;DHT22;9239;50.932;3.142;2024-01-30T00:27:10;10.40;99.90
18229;DHT22;9239;50.932;3.142;2024-01-30T00:29:37;10.40;99.90
18229;DHT22;9239;50.932;3.142;2024-01-30T00:32:05;10.40;99.90
18229;DHT22;9239;50.932;3.142;2024-01-30T00:34:32;10.40;99.90
18229;DHT22;9239;50.932;3.142;2024-01-30T00:36:59;10.40;99.90
18229;DHT22;9239;50.932;3.142;2024-01-30T00:39:27;10.30;99.90
18229;DHT22;9239;50.932;3.142;2024-01-30T00:41:54;10.30;99.90
18229;DHT22;9239;50.932;3.142;2024-01-30T00:44:21;10.30;99.90
18229;DHT22;9239;50.932;3.142;2024-01-30T00:46:48;10.30;99.90
18229;DHT22;9239;50.932;3.142;2024-01-30T00:49:15;10.20;99.90
18229;DHT22;9239;50.932;3.142;2024-01-30T00:51:42;10.20;99.90
18229;DHT22;9239;50.932;3.142;2024-01-30T00:54:09;10.20;99.90
18229;DHT22;9239;50.932;3.142;2024-01-30T00:56:37;10.20;99.90
18229;DHT22;9239;50.932;3.142;2024-01-30T00:59:04;10.10;99.90
18229;DHT22;9239;50.932;3.142;2024-01-30T01:01:31;10.10;99.90
18229;DHT22;9239;50.932;3.142;2024-01-30T01:03:58;10.10;99.90
18229;DHT22;9239;50.932;3.142;2024-01-30T01:06:25;10.00;99.90
18229;DHT22;9239;50.932;3.142;2024-01-30T01:08:52;10.10;99.90
18229;DHT22;9239;50.932;3.142;2024-01-30T01:11:19;10.10;99.90
18229;DHT22;9239;50.932;3.142;2024-01-30T01:13:47;10.00;99.90
18229;DHT22;9239;50.932;3.142;2024-01-30T01:16:14;10.00;99.90
18229;DHT22;9239;50.932;3.142;2024-01-30T01:18:41;10.00;99.90
18229;DHT22;9239;50.932;3.142;2024-01-30T01:21:08;10.10;99.90
18229;DHT22;9239;50.932;3.142;2024-01-30T01:23:35;10.00;99.90
18229;DHT22;9239;50.932;3.142;2024-01-30T01:26:02;10.00;99.90
18229;DHT22;9239;50.932;3.142;2024-01-30T01:28:29;10.00;99.90
18229;DHT22;9239;50.932;3.142;2024-01-30T01:30:58;10.00;99.90
18229;DHT22;9239;50.932;3.142;2024-01-30T01:33:30;10.00;99.90
18229;DHT22;9239;50.932;3.142;2024-01-30T01:35:58;10.00;99.90
18229;DHT22;9239;50.932;3.142;2024-01-30T01:38:25;9.90;99.90
18229;DHT22;9239;50.932;3.142;2024-01-30T01:40:52;9.90;99.90
18229;DHT22;9239;50.932;3.142;2024-01-30T01:43:19;9.90;99.90
18229;DHT22;9239;50.932;3.142;2024-01-30T01:45:46;9.90;99.90
18229;DHT22;9239;50.932;3.142;2024-01-30T01:48:15;9.90;99.90
18229;DHT22;9239;50.932;3.142;2024-01-30T01:50:42;9.80;99.90
18229;DHT22;9239;50.932;3.142;2024-01-30T01:53:10;9.80;99.90
18229;DHT22;9239;50.932;3.142;2024-01-30T01:55:38;9.80;99.90
18229;DHT22;9239;50.932;3.142;2024-01-30T01:58:07;9.80;99.90
18229;DHT22;9239;50.932;3.142;2024-01-30T02:00:36;9.80;99.90
18229;DHT22;9239;50.932;3.142;2024-01-30T02:03:06;9.70;99.90
18229;DHT22;9239;50.932;3.142;2024-01-30T02:05:34;9.80;99.90
18229;DHT22;9239;50.932;3.142;2024-01-30T02:08:01;9.80;99.90
18229;DHT22;9239;50.932;3.142;2024-01-30T02:10:29;9.80;99.90
18229;DHT22;9239;50.932;3.142;2024-01-30T02:12:56;9.90;99.90
18229;DHT22;9239;50.932;3.142;2024-01-30T02:15:23;10.00;99.90
18229;DHT22;9239;50.932;3.142;2024-01-30T02:17:50;10.00;99.90
18229;DHT22;9239;50.932;3.142;2024-01-30T02:20:17;10.10;99.90
18229;DHT22;9239;50.932;3.142;2024-01-30T02:22:45;10.10;99.90
18229;DHT22;9239;50.932;3.142;2024-01-30T02:25:13;10.20;99.90
18229;DHT22;9239;50.932;3.142;2024-01-30T02:27:40;10.20;99.90
18229;DHT22;9239;50.932;3.142;2024-01-30T02:30:07;10.20;99.90
18229;DHT22;9239;50.932;3.142;2024-01-30T02:32:36;10.20;99.90
18229;DHT22;9239;50.932;3.142;2024-01-30T02:35:03;10.20;99.90
18229;DHT22;9239;50.932;3.142;2024-01-30T02:37:30;10.30;99.90
18229;DHT22;9239;50.932;3.142;2024-01-30T02:39:59;10.20;99.90
18229;DHT22;9239;50.932;3.142;2024-01-30T02:42:26;10.30;99.90
18229;DHT22;9239;50.932;3.142;2024-01-30T02:44:53;10.30;99.90
18229;DHT22;9239;50.932;3.142;2024-01-30T02:47:19;10.30;99.90
18229;DHT22;9239;50.932;3.142;2024-01-30T02:49:47;10.30;99.90
18229;DHT22;9239;50.932;3.142;2024-01-30T02:52:13;10.30;99.90
18229;DHT22;9239;50.932;3.142;2024-01-30T02:54:40;10.30;99.90
18229;DHT22;9239;50.932;3.142;2024-01-30T02:57:09;10.30;99.90
18229;DHT22;9239;50.932;3.142;2024-01-30T02:59:36;10.40;99.90
18229;DHT22;9239;50.932;3.142;2024-01-30T03:02:03;10.40;99.90
18229;DHT22;9239;50.932;3.142;2024-01-30T03:04:30;10.30;99.90
18229;DHT22;9239;50.932;3.142;2024-01-30T03:06:57;10.30;99.90
18229;DHT22;9239;50.932;3.142;2024-01-30T03:09:24;10.30;99.90
18229;DHT22;9239;50.932;3.142;2024-01-30T03:11:52;10.30;99.90
18229;DHT22;9239;50.932;3.142;2024-01-30T03:14:21;10.30;99.90
18229;DHT22;9239;50.932;3.142;2024-01-30T03:16:48;10.30;99.90
18229;DHT22;9239;50.932;3.142;2024-01-30T03:19:15;10.30;99.90
18229;DHT22;9239;50.932;3.142;2024-01-30T03:21:42;10.20;99.90
18229;DHT22;9239;50.932;3.142;2024-01-30T03:24:09;10.30;99.90
18229;DHT22;9239;50.932;3.142;2024-01-30T03:26:36;10.20;99.90
18229;DHT22;9239;50.932;3.142;2024-01-30T03:29:03;10.20;99.90
18229;DHT22;9239;50.932;3.142;2024-01-30T03:31:31;10.20;99.90
18229;DHT22;9239;50.932;3.142;2024-01-30T03:33:58;10.20;99.90
18229;DHT22;9239;50.932;3.142;2024-01-30T03:36:25;10.20;99.90
18229;DHT22;9239;50.932;3.142;2024-01-30T03:38:52;10.20;99.90
18229;DHT22;9239;50.932;3.142;2024-01-30T03:41:19;10.20;99.90
18229;DHT22;9239;50.932;3.142;2024-01-30T03:43:47;10.30;99.90
18229;DHT22;9239;50.932;3.142;2024-01-30T03:46:14;10.20;99.90
18229;DHT22;9239;50.932;3.142;2024-01-30T03:48:42;10.20;99.90
18229;DHT22;9239;50.932;3.142;2024-01-30T03:51:09;10.20;99.90
18229;DHT22;9239;50.932;3.142;2024-01-30T03:53:40;10.10;99.90
18229;DHT22;9239;50.932;3.142;2024-01-30T03:56:07;10.10;99.90
18229;DHT22;9239;50.932;3.142;2024-01-30T03:58:34;10.10;99.90
18229;DHT22;9239;50.932;3.142;2024-01-30T04:01:01;10.00;99.90
18229;DHT22;9239;50.932;3.142;2024-01-30T04:03:28;10.00;99.90
18229;DHT22;9239;50.932;3.142;2024-01-30T04:05:56;10.10;99.90
18229;DHT22;9239;50.932;3.142;2024-01-30T04:08:23;10.10;99.90
18229;DHT22;9239;50.932;3.142;2024-01-30T04:10:50;10.10;99.90
18229;DHT22;9239;50.932;3.142;2024-01-30T04:13:17;10.10;99.90
18229;DHT22;9239;50.932;3.142;2024-01-30T04:15:44;10.10;99.90
18229;DHT22;9239;50.932;3.142;2024-01-30T04:18:11;10.10;99.90
18229;DHT22;9239;50.932;3.142;2024-01-30T04:20:38;10.00;99.90
18229;DHT22;9239;50.932;3.142;2024-01-30T04:23:06;10.10;99.90
18229;DHT22;9239;50.932;3.142;2024-01-30T04:25:33;10.00;99.90
18229;DHT22;9239;50.932;3.142;2024-01-30T04:28:00;10.00;99.90
18229;DHT22;9239;50.932;3.142;2024-01-30T04:30:28;10.00;99.90
18229;DHT22;9239;50.932;3.142;2024-01-30T04:32:55;9.90;99.90
18229;DHT22;9239;50.932;3.142;2024-01-30T04:35:22;9.90;99.90
18229;DHT22;9239;50.932;3.142;2024-01-30T04:37:51;9.90;99.90
18229;DHT22;9239;50.932;3.142;2024-01-30T04:40:20;9.90;99.90
18229;DHT22;9239;50.932;3.142;2024-01-30T04:42:47;9.90;99.90
18229;DHT22;9239;50.932;3.142;2024-01-30T04:45:14;9.80;99.90
18229;DHT22;9239;50.932;3.142;2024-01-30T04:47:41;9.90;99.90
18229;DHT22;9239;50.932;3.142;2024-01-30T04:50:08;9.80;99.90
18229;DHT22;9239;50.932;3.142;2024-01-30T04:52:35;9.80;99.90
18229;DHT22;9239;50.932;3.142;2024-01-30T04:55:02;9.80;99.90
18229;DHT22;9239;50.932;3.142;2024-01-30T04:57:31;9.90;99.90
18229;DHT22;9239;50.932;3.142;2024-01-30T04:59:59;9.90;99.90
18229;DHT22;9239;50.932;3.142;2024-01-30T05:02:27;9.90;99.90
18229;DHT22;9239;50.932;3.142;2024-01-30T05:04:54;9.90;99.90
18229;DHT22;9239;50.932;3.142;2024-01-30T05:07:21;9.80;99.90
18229;DHT22;9239;50.932;3.142;2024-01-30T05:09:48;9.80;99.90
18229;DHT22;9239;50.932;3.142;2024-01-30T05:12:15;9.90;99.90
18229;DHT22;9239;50.932;3.142;2024-01-30T05:14:43;9.90;99.90
18229;DHT22;9239;50.932;3.142;2024-01-30T05:17:10;9.90;99.90
18229;DHT22;9239;50.932;3.142;2024-01-30T05:19:38;9.90;99.90
18229;DHT22;9239;50.932;3.142;2024-01-30T05:22:05;9.90;99.90
18229;DHT22;9239;50.932;3.142;2024-01-30T05:24:33;9.90;99.90
18229;DHT22;9239;50.932;3.142;2024-01-30T05:27:00;9.90;99.90
18229;DHT22;9239;50.932;3.142;2024-01-30T05:29:28;10.00;99.90
18229;DHT22;9239;50.932;3.142;2024-01-30T05:31:56;10.00;99.90
18229;DHT22;9239;50.932;3.142;2024-01-30T05:34:23;10.00;99.90
18229;DHT22;9239;50.932;3.142;2024-01-30T05:36:50;10.00;99.90
18229;DHT22;9239;50.932;3.142;2024-01-30T05:39:17;10.00;99.90
18229;DHT22;9239;50.932;3.142;2024-01-30T05:41:44;10.10;99.90
18229;DHT22;9239;50.932;3.142;2024-01-30T05:44:11;10.10;99.90
18229;DHT22;9239;50.932;3.142;2024-01-30T05:46:38;10.10;99.90
18229;DHT22;9239;50.932;3.142;2024-01-30T05:49:06;10.10;99.90
18229;DHT22;9239;50.932;3.142;2024-01-30T05:51:33;10.10;99.90
18229;DHT22;9239;50.932;3.142;2024-01-30T05:54:00;10.10;99.90
18229;DHT22;9239;50.932;3.142;2024-01-30T05:56:29;10.10;99.90
18229;DHT22;9239;50.932;3.142;2024-01-30T05:58:56;10.00;99.90
18229;DHT22;9239;50.932;3.142;2024-01-30T06:01:23;10.10;99.90
18229;DHT22;9239;50.932;3.142;2024-01-30T06:03:50;10.10;99.90
18229;DHT22;9239;50.932;3.142;2024-01-30T06:06:18;10.10;99.90
18229;DHT22;9239;50.932;3.142;2024-01-30T06:08:45;10.20;99.90
18229;DHT22;9239;50.932;3.142;2024-01-30T06:11:12;10.30;99.90
18229;DHT22;9239;50.932;3.142;2024-01-30T06:13:39;10.30;99.90
18229;DHT22;9239;50.932;3.142;2024-01-30T06:16:09;10.30;99.90
18229;DHT22;9239;50.932;3.142;2024-01-30T06:18:37;10.30;99.90
18229;DHT22;9239;50.932;3.142;2024-01-30T06:21:05;10.40;99.90
18229;DHT22;9239;50.932;3.142;2024-01-30T06:23:33;10.40;99.90
18229;DHT22;9239;50.932;3.142;2024-01-30T06:26:00;10.50;99.90
18229;DHT22;9239;50.932;3.142;2024-01-30T06:28:28;10.50;99.90
18229;DHT22;9239;50.932;3.142;2024-01-30T06:30:56;10.50;99.90
18229;DHT22;9239;50.932;3.142;2024-01-30T06:33:23;10.50;99.90
18229;DHT22;9239;50.932;3.142;2024-01-30T06:35:50;10.60;99.90
18229;DHT22;9239;50.932;3.142;2024-01-30T06:38:17;10.60;99.90
18229;DHT22;9239;50.932;3.142;2024-01-30T06:40:45;10.60;99.90
18229;DHT22;9239;50.932;3.142;2024-01-30T06:43:12;10.60;99.90
18229;DHT22;9239;50.932;3.142;2024-01-30T06:45:39;10.70;99.90
18229;DHT22;9239;50.932;3.142;2024-01-30T06:48:08;10.70;99.90
18229;DHT22;9239;50.932;3.142;2024-01-30T06:50:35;10.70;99.90
18229;DHT22;9239;50.932;3.142;2024-01-30T06:53:02;10.70;99.90
18229;DHT22;9239;50.932;3.142;2024-01-30T06:55:29;10.70;99.90
18229;DHT22;9239;50.932;3.142;2024-01-30T06:57:57;10.70;99.90
18229;DHT22;9239;50.932;3.142;2024-01-30T07:00:24;10.70;99.90
18229;DHT22;9239;50.932;3.142;2024-01-30T07:02:51;10.70;99.90
18229;DHT22;9239;50.932;3.142;2024-01-30T07:05:18;10.70;99.90
18229;DHT22;9239;50.932;3.142;2024-01-30T07:07:47;10.80;99.90
18229;DHT22;9239;50.932;3.142;2024-01-30T07:10:14;10.70;99.90
18229;DHT22;9239;50.932;3.142;2024-01-30T07:12:41;10.80;99.90
18229;DHT22;9239;50.932;3.142;2024-01-30T07:15:10;10.70;99.90
18229;DHT22;9239;50.932;3.142;2024-01-30T07:17:38;10.70;99.90
18229;DHT22;9239;50.932;3.142;2024-01-30T07:20:06;10.80;99.90
18229;DHT22;9239;50.932;3.142;2024-01-30T07:22:34;10.80;99.90
18229;DHT22;9239;50.932;3.142;2024-01-30T07:25:01;10.80;99.90
18229;DHT22;9239;50.932;3.142;2024-01-30T07:27:28;10.80;99.90
18229;DHT22;9239;50.932;3.142;2024-01-30T07:29:55;10.80;99.90
18229;DHT22;9239;50.932;3.142;2024-01-30T07:32:23;10.80;99.90
18229;DHT22;9239;50.932;3.142;2024-01-30T07:34:50;10.70;99.90
18229;DHT22;9239;50.932;3.142;2024-01-30T07:37:17;10.70;99.90
18229;DHT22;9239;50.932;3.142;2024-01-30T07:39:44;10.70;99.90
18229;DHT22;9239;50.932;3.142;2024-01-30T07:42:12;10.70;99.90
18229;DHT22;9239;50.932;3.142;2024-01-30T07:44:39;10.80;99.90
18229;DHT22;9239;50.932;3.142;2024-01-30T07:47:05;10.80;99.90
18229;DHT22;9239;50.932;3.142;2024-01-30T07:49:34;10.70;99.90
18229;DHT22;9239;50.932;3.142;2024-01-30T07:52:01;10.80;99.90
18229;DHT22;9239;50.932;3.142;2024-01-30T07:54:32;10.80;99.90
18229;DHT22;9239;50.932;3.142;2024-01-30T07:57:00;10.80;99.90
18229;DHT22;9239;50.932;3.142;2024-01-30T07:59:27;10.70;99.90
18229;DHT22;9239;50.932;3.142;2024-01-30T08:01:54;10.70;99.90
18229;DHT22;9239;50.932;3.142;2024-01-30T08:04:21;10.70;99.90
18229;DHT22;9239;50.932;3.142;2024-01-30T08:06:50;10.70;99.90
18229;DHT22;9239;50.932;3.142;2024-01-30T08:09:16;10.70;99.90
18229;DHT22;9239;50.932;3.142;2024-01-30T08:11:43;10.70;99.90
18229;DHT22;9239;50.932;3.142;2024-01-30T08:14:10;10.80;99.90
18229;DHT22;9239;50.932;3.142;2024-01-30T08:16:39;10.80;99.90
18229;DHT22;9239;50.932;3.142;2024-01-30T08:19:06;10.80;99.90
18229;DHT22;9239;50.932;3.142;2024-01-30T08:21:33;10.80;99.90
18229;DHT22;9239;50.932;3.142;2024-01-30T08:24:04;10.90;99.90
18229;DHT22;9239;50.932;3.142;2024-01-30T08:26:31;10.90;99.90
18229;DHT22;9239;50.932;3.142;2024-01-30T08:28:58;10.90;99.90
18229;DHT22;9239;50.932;3.142;2024-01-30T08:31:25;10.80;99.90
18229;DHT22;9239;50.932;3.142;2024-01-30T08:33:52;10.80;99.90
18229;DHT22;9239;50.932;3.142;2024-01-30T08:36:20;10.80;99.90
18229;DHT22;9239;50.932;3.142;2024-01-30T08:38:47;10.80;99.90
18229;DHT22;9239;50.932;3.142;2024-01-30T08:41:16;10.80;99.90
18229;DHT22;9239;50.932;3.142;2024-01-30T08:43:43;10.90;99.90
18229;DHT22;9239;50.932;3.142;2024-01-30T08:46:10;10.80;99.90
18229;DHT22;9239;50.932;3.142;2024-01-30T08:48:37;10.80;99.90
18229;DHT22;9239;50.932;3.142;2024-01-30T08:51:05;10.80;99.90
18229;DHT22;9239;50.932;3.142;2024-01-30T08:53:34;10.80;99.90
18229;DHT22;9239;50.932;3.142;2024-01-30T08:56:02;10.80;99.90
18229;DHT22;9239;50.932;3.142;2024-01-30T08:58:30;10.70;99.90
18229;DHT22;9239;50.932;3.142;2024-01-30T09:00:57;10.70;99.90
18229;DHT22;9239;50.932;3.142;2024-01-30T09:03:24;10.60;99.90
18229;DHT22;9239;50.932;3.142;2024-01-30T09:05:51;10.60;99.90
18229;DHT22;9239;50.932;3.142;2024-01-30T09:08:18;10.60;99.90
18229;DHT22;9239;50.932;3.142;2024-01-30T09:10:45;10.60;99.90
18229;DHT22;9239;50.932;3.142;2024-01-30T09:13:11;10.50;99.90
18229;DHT22;9239;50.932;3.142;2024-01-30T09:15:41;10.50;99.90
18229;DHT22;9239;50.932;3.142;2024-01-30T09:18:09;10.40;99.90
18229;DHT22;9239;50.932;3.142;2024-01-30T09:20:36;10.40;99.90
18229;DHT22;9239;50.932;3.142;2024-01-30T09:23:03;10.40;99.90
18229;DHT22;9239;50.932;3.142;2024-01-30T09:25:30;10.40;99.90
18229;DHT22;9239;50.932;3.142;2024-01-30T09:27:57;10.30;99.90
18229;DHT22;9239;50.932;3.142;2024-01-30T09:30:24;10.30;99.90
18229;DHT22;9239;50.932;3.142;2024-01-30T09:32:52;10.30;99.90
18229;DHT22;9239;50.932;3.142;2024-01-30T09:35:19;10.30;99.90
18229;DHT22;9239;50.932;3.142;2024-01-30T09:37:46;10.30;99.90
18229;DHT22;9239;50.932;3.142;2024-01-30T09:40:14;10.30;99.90
18229;DHT22;9239;50.932;3.142;2024-01-30T09:42:46;10.20;99.90
18229;DHT22;9239;50.932;3.142;2024-01-30T09:45:14;10.30;99.90
18229;DHT22;9239;50.932;3.142;2024-01-30T09:47:42;10.30;99.90
18229;DHT22;9239;50.932;3.142;2024-01-30T09:50:12;10.30;99.90
18229;DHT22;9239;50.932;3.142;2024-01-30T09:52:39;10.30;99.90
18229;DHT22;9239;50.932;3.142;2024-01-30T09:55:07;10.40;99.90
18229;DHT22;9239;50.932;3.142;2024-01-30T09:57:34;10.30;99.90
18229;DHT22;9239;50.932;3.142;2024-01-30T10:00:02;10.30;99.90
18229;DHT22;9239;50.932;3.142;2024-01-30T10:02:31;10.30;99.90
18229;DHT22;9239;50.932;3.142;2024-01-30T10:04:59;10.40;99.90
18229;DHT22;9239;50.932;3.142;2024-01-30T10:07:28;10.40;99.90
18229;DHT22;9239;50.932;3.142;2024-01-30T10:09:55;10.40;99.90
18229;DHT22;9239;50.932;3.142;2024-01-30T10:12:23;10.40;99.90
18229;DHT22;9239;50.932;3.142;2024-01-30T10:14:50;10.40;99.90
18229;DHT22;9239;50.932;3.142;2024-01-30T10:17:18;10.50;99.90
18229;DHT22;9239;50.932;3.142;2024-01-30T10:19:47;10.50;99.90
18229;DHT22;9239;50.932;3.142;2024-01-30T10:22:14;10.60;99.90
18229;DHT22;9239;50.932;3.142;2024-01-30T10:24:43;10.60;99.90
18229;DHT22;9239;50.932;3.142;2024-01-30T10:27:10;10.60;99.90
18229;DHT22;9239;50.932;3.142;2024-01-30T10:29:38;10.70;99.90
18229;DHT22;9239;50.932;3.142;2024-01-30T10:32:05;10.80;99.90
18229;DHT22;9239;50.932;3.142;2024-01-30T10:34:32;10.90;99.90
18229;DHT22;9239;50.932;3.142;2024-01-30T10:37:07;11.00;99.90
18229;DHT22;9239;50.932;3.142;2024-01-30T10:39:39;10.90;99.90
18229;DHT22;9239;50.932;3.142;2024-01-30T10:42:11;10.80;99.90
18229;DHT22;9239;50.932;3.142;2024-01-30T10:44:46;10.70;99.90
18229;DHT22;9239;50.932;3.142;2024-01-30T10:47:18;10.70;99.90
18229;DHT22;9239;50.932;3.142;2024-01-30T10:49:47;10.60;99.90
18229;DHT22;9239;50.932;3.142;2024-01-30T10:52:14;10.70;99.90
18229;DHT22;9239;50.932;3.142;2024-01-30T10:54:44;10.70;99.90
18229;DHT22;9239;50.932;3.142;2024-01-30T10:57:14;10.70;99.90
18229;DHT22;9239;50.932;3.142;2024-01-30T10:59:43;10.70;99.90
18229;DHT22;9239;50.932;3.142;2024-01-30T11:02:11;10.70;99.90
18229;DHT22;9239;50.932;3.142;2024-01-30T11:04:41;10.70;99.90
18229;DHT22;9239;50.932;3.142;2024-01-30T11:07:14;10.70;99.90
18229;DHT22;9239;50.932;3.142;2024-01-30T11:09:48;10.70;99.90
18229;DHT22;9239;50.932;3.142;2024-01-30T11:12:21;10.70;99.90
18229;DHT22;9239;50.932;3.142;2024-01-30T11:14:49;10.70;99.90
18229;DHT22;9239;50.932;3.142;2024-01-30T11:17:16;10.70;99.90
18229;DHT22;9239;50.932;3.142;2024-01-30T11:19:43;10.70;99.90
18229;DHT22;9239;50.932;3.142;2024-01-30T11:22:11;10.70;99.90
18229;DHT22;9239;50.932;3.142;2024-01-30T11:24:39;10.70;99.90
18229;DHT22;9239;50.932;3.142;2024-01-30T11:27:09;10.70;99.90
18229;DHT22;9239;50.932;3.142;2024-01-30T11:29:37;10.60;99.90
18229;DHT22;9239;50.932;3.142;2024-01-30T11:32:05;10.40;99.90
18229;DHT22;9239;50.932;3.142;2024-01-30T11:34:32;10.40;99.90
18229;DHT22;9239;50.932;3.142;2024-01-30T11:37:03;10.40;99.90
18229;DHT22;9239;50.932;3.142;2024-01-30T11:39:30;10.30;99.90
18229;DHT22;9239;50.932;3.142;2024-01-30T11:41:59;10.30;99.90
18229;DHT22;9239;50.932;3.142;2024-01-30T11:44:26;10.20;99.90
18229;DHT22;9239;50.932;3.142;2024-01-30T11:46:54;10.30;99.90
18229;DHT22;9239;50.932;3.142;2024-01-30T11:49:21;10.20;99.90
18229;DHT22;9239;50.932;3.142;2024-01-30T11:51:48;10.20;99.90
18229;DHT22;9239;50.932;3.142;2024-01-30T11:54:15;10.20;99.90
18229;DHT22;9239;50.932;3.142;2024-01-30T11:56:43;10.20;99.90
18229;DHT22;9239;50.932;3.142;2024-01-30T11:59:10;10.30;99.90
18229;DHT22;9239;50.932;3.142;2024-01-30T12:01:37;10.20;99.90
18229;DHT22;9239;50.932;3.142;2024-01-30T12:04:05;10.20;99.90
18229;DHT22;9239;50.932;3.142;2024-01-30T12:06:34;10.30;99.90
18229;DHT22;9239;50.932;3.142;2024-01-30T12:09:03;10.20;99.90
18229;DHT22;9239;50.932;3.142;2024-01-30T12:11:30;10.20;99.90
18229;DHT22;9239;50.932;3.142;2024-01-30T12:13:58;10.20;99.90
18229;DHT22;9239;50.932;3.142;2024-01-30T12:16:26;10.20;99.90
18229;DHT22;9239;50.932;3.142;2024-01-30T12:18:59;10.20;99.90
18229;DHT22;9239;50.932;3.142;2024-01-30T12:21:28;10.20;99.90
18229;DHT22;9239;50.932;3.142;2024-01-30T12:23:56;10.20;99.90
18229;DHT22;9239;50.932;3.142;2024-01-30T12:26:23;10.20;99.90
18229;DHT22;9239;50.932;3.142;2024-01-30T12:28:54;10.20;99.90
18229;DHT22;9239;50.932;3.142;2024-01-30T12:31:26;10.20;99.90
18229;DHT22;9239;50.932;3.142;2024-01-30T12:33:53;10.20;99.90
18229;DHT22;9239;50.932;3.142;2024-01-30T12:36:21;10.20;99.90
18229;DHT22;9239;50.932;3.142;2024-01-30T12:38:50;10.20;99.90
18229;DHT22;9239;50.932;3.142;2024-01-30T12:41:17;10.20;99.90
18229;DHT22;9239;50.932;3.142;2024-01-30T12:43:44;10.20;99.90
18229;DHT22;9239;50.932;3.142;2024-01-30T12:46:11;10.10;99.90
18229;DHT22;9239;50.932;3.142;2024-01-30T12:48:38;10.20;99.90
18229;DHT22;9239;50.932;3.142;2024-01-30T12:51:05;10.10;99.90
18229;DHT22;9239;50.932;3.142;2024-01-30T12:53:32;10.20;99.90
18229;DHT22;9239;50.932;3.142;2024-01-30T12:56:00;10.20;99.90
18229;DHT22;9239;50.932;3.142;2024-01-30T12:58:27;10.10;99.90
18229;DHT22;9239;50.932;3.142;2024-01-30T13:00:54;10.10;99.90
18229;DHT22;9239;50.932;3.142;2024-01-30T13:03:22;10.20;99.90
18229;DHT22;9239;50.932;3.142;2024-01-30T13:05:49;10.20;99.90
18229;DHT22;9239;50.932;3.142;2024-01-30T13:08:16;10.30;99.90
18229;DHT22;9239;50.932;3.142;2024-01-30T13:10:43;10.20;99.90
18229;DHT22;9239;50.932;3.142;2024-01-30T13:13:11;10.20;99.90
18229;DHT22;9239;50.932;3.142;2024-01-30T13:15:38;10.20;99.90
18229;DHT22;9239;50.932;3.142;2024-01-30T13:18:06;10.20;99.90
18229;DHT22;9239;50.932;3.142;2024-01-30T13:20:33;10.20;99.90
18229;DHT22;9239;50.932;3.142;2024-01-30T13:23:00;10.10;99.90
18229;DHT22;9239;50.932;3.142;2024-01-30T13:25:27;10.10;99.90
18229;DHT22;9239;50.932;3.142;2024-01-30T13:27:53;10.00;99.90
18229;DHT22;9239;50.932;3.142;2024-01-30T13:30:22;10.00;99.90
18229;DHT22;9239;50.932;3.142;2024-01-30T13:32:49;10.00;99.90
18229;DHT22;9239;50.932;3.142;2024-01-30T13:35:16;9.90;99.90
18229;DHT22;9239;50.932;3.142;2024-01-30T13:37:43;9.90;99.90
18229;DHT22;9239;50.932;3.142;2024-01-30T13:40:11;9.90;99.90
18229;DHT22;9239;50.932;3.142;2024-01-30T13:42:39;10.00;99.90
18229;DHT22;9239;50.932;3.142;2024-01-30T13:45:07;10.00;99.90
18229;DHT22;9239;50.932;3.142;2024-01-30T13:47:36;9.90;99.90
18229;DHT22;9239;50.932;3.142;2024-01-30T13:50:04;9.90;99.90
18229;DHT22;9239;50.932;3.142;2024-01-30T13:52:31;9.90;99.90
18229;DHT22;9239;50.932;3.142;2024-01-30T13:54:58;9.90;99.90
18229;DHT22;9239;50.932;3.142;2024-01-30T13:57:25;9.90;99.90
18229;DHT22;9239;50.932;3.142;2024-01-30T13:59:52;9.90;99.90
18229;DHT22;9239;50.932;3.142;2024-01-30T14:02:19;9.80;99.90
18229;DHT22;9239;50.932;3.142;2024-01-30T14:04:47;9.80;99.90
18229;DHT22;9239;50.932;3.142;2024-01-30T14:07:14;9.80;99.90
18229;DHT22;9239;50.932;3.142;2024-01-30T14:09:44;9.80;99.90
18229;DHT22;9239;50.932;3.142;2024-01-30T14:12:11;9.80;99.90
18229;DHT22;9239;50.932;3.142;2024-01-30T14:14:38;9.80;99.90
18229;DHT22;9239;50.932;3.142;2024-01-30T14:17:05;9.80;99.90
18229;DHT22;9239;50.932;3.142;2024-01-30T14:19:32;9.70;99.90
18229;DHT22;9239;50.932;3.142;2024-01-30T14:22:01;9.70;99.90
18229;DHT22;9239;50.932;3.142;2024-01-30T14:24:28;9.60;99.90
18229;DHT22;9239;50.932;3.142;2024-01-30T14:26:55;9.60;99.90
18229;DHT22;9239;50.932;3.142;2024-01-30T14:29:22;9.50;99.90
18229;DHT22;9239;50.932;3.142;2024-01-30T14:31:49;9.40;99.90
18229;DHT22;9239;50.932;3.142;2024-01-30T14:34:16;9.30;99.90
18229;DHT22;9239;50.932;3.142;2024-01-30T14:36:44;9.40;99.90
18229;DHT22;9239;50.932;3.142;2024-01-30T14:39:12;9.30;99.90
18229;DHT22;9239;50.932;3.142;2024-01-30T14:41:40;9.40;99.90
18229;DHT22;9239;50.932;3.142;2024-01-30T14:44:07;9.30;99.90
18229;DHT22;9239;50.932;3.142;2024-01-30T14:46:35;9.30;99.90
18229;DHT22;9239;50.932;3.142;2024-01-30T14:49:02;9.30;99.90
18229;DHT22;9239;50.932;3.142;2024-01-30T14:51:31;9.30;99.90
18229;DHT22;9239;50.932;3.142;2024-01-30T14:53:58;9.30;99.90
18229;DHT22;9239;50.932;3.142;2024-01-30T14:56:27;9.30;99.90
18229;DHT22;9239;50.932;3.142;2024-01-30T14:58:54;9.30;99.90
18229;DHT22;9239;50.932;3.142;2024-01-30T15:01:22;9.30;99.90
18229;DHT22;9239;50.932;3.142;2024-01-30T15:03:49;9.20;99.90
18229;DHT22;9239;50.932;3.142;2024-01-30T15:06:17;9.10;99.90
18229;DHT22;9239;50.932;3.142;2024-01-30T15:08:44;9.10;99.90
18229;DHT22;9239;50.932;3.142;2024-01-30T15:11:11;9.10;99.90
18229;DHT22;9239;50.932;3.142;2024-01-30T15:13:40;9.10;99.90
18229;DHT22;9239;50.932;3.142;2024-01-30T15:16:07;9.00;99.90
18229;DHT22;9239;50.932;3.142;2024-01-30T15:18:34;9.00;99.90
18229;DHT22;9239;50.932;3.142;2024-01-30T15:21:02;9.00;99.90
18229;DHT22;9239;50.932;3.142;2024-01-30T15:23:29;8.90;99.90
18229;DHT22;9239;50.932;3.142;2024-01-30T15:25:56;8.90;99.90
18229;DHT22;9239;50.932;3.142;2024-01-30T15:28:34;8.90;99.90
18229;DHT22;9239;50.932;3.142;2024-01-30T15:31:03;8.90;99.90
18229;DHT22;9239;50.932;3.142;2024-01-30T15:33:31;8.90;99.90
18229;DHT22;9239;50.932;3.142;2024-01-30T15:35:58;8.90;99.90
18229;DHT22;9239;50.932;3.142;2024-01-30T15:38:25;8.90;99.90
18229;DHT22;9239;50.932;3.142;2024-01-30T15:40:53;8.80;99.90
18229;DHT22;9239;50.932;3.142;2024-01-30T15:43:20;8.80;99.90
18229;DHT22;9239;50.932;3.142;2024-01-30T15:45:48;8.90;99.90
18229;DHT22;9239;50.932;3.142;2024-01-30T15:48:16;8.80;99.90
18229;DHT22;9239;50.932;3.142;2024-01-30T15:50:43;8.80;99.90